createdAt,value
2022-10-10T00:00:03.492Z,981.01
2022-10-10T00:01:03.414Z,981.01
2022-10-10T00:02:03.580Z,980.78
2022-10-10T00:03:03.512Z,980.92
2022-10-10T00:04:03.537Z,980.87
2022-10-10T00:05:03.660Z,980.73
2022-10-10T00:06:04.512Z,980.78
2022-10-10T00:07:03.491Z,980.75
2022-10-10T00:08:03.535Z,980.90
2022-10-10T00:09:03.686Z,980.72
2022-10-10T00:10:04.124Z,980.70
2022-10-10T00:11:02.924Z,980.70
2022-10-10T00:12:02.906Z,980.72
2022-10-10T00:13:02.942Z,980.70
2022-10-10T00:14:03.233Z,980.61
2022-10-10T00:15:03.233Z,980.72
2022-10-10T00:16:03.267Z,980.67
2022-10-10T00:17:03.403Z,980.75
2022-10-10T00:18:03.366Z,980.69
2022-10-10T00:19:03.298Z,980.69
2022-10-10T00:20:03.438Z,980.75
2022-10-10T00:21:03.420Z,980.64
2022-10-10T00:22:03.956Z,980.69
2022-10-10T00:23:03.899Z,980.61
2022-10-10T00:24:03.883Z,980.75
2022-10-10T00:25:03.955Z,980.78
2022-10-10T00:26:09.528Z,980.80
2022-10-10T00:27:03.001Z,980.69
2022-10-10T00:28:02.999Z,980.63
2022-10-10T00:29:03.005Z,980.63
2022-10-10T00:30:02.981Z,980.63
2022-10-10T00:31:03.006Z,980.63
2022-10-10T00:32:03.509Z,980.80
2022-10-10T00:33:03.514Z,980.58
2022-10-10T00:34:03.529Z,980.66
2022-10-10T00:35:04.106Z,980.66
2022-10-10T00:36:03.048Z,980.49
2022-10-10T00:37:03.089Z,980.66
2022-10-10T00:38:03.063Z,980.58
2022-10-10T00:39:03.013Z,980.63
2022-10-10T00:40:03.100Z,980.63
2022-10-10T00:41:03.183Z,980.52
2022-10-10T00:42:03.154Z,980.46
2022-10-10T00:43:03.239Z,980.55
2022-10-10T00:44:03.303Z,980.40
2022-10-10T00:45:03.398Z,980.54
2022-10-10T00:46:03.459Z,980.52
2022-10-10T00:47:03.501Z,980.46
2022-10-10T00:48:03.533Z,980.49
2022-10-10T00:49:03.693Z,980.43
2022-10-10T00:50:03.618Z,980.43
2022-10-10T00:51:03.556Z,980.51
2022-10-10T00:52:03.672Z,980.46
2022-10-10T00:53:03.684Z,980.37
2022-10-10T00:54:03.618Z,980.37
2022-10-10T00:55:03.718Z,980.43
2022-10-10T00:56:03.718Z,980.46
2022-10-10T00:57:03.717Z,980.57
2022-10-10T00:58:03.714Z,980.34
2022-10-10T00:59:03.756Z,980.43
2022-10-10T01:00:02.898Z,980.40
2022-10-10T01:01:03.000Z,980.28
2022-10-10T01:02:02.964Z,980.31
2022-10-10T01:03:02.998Z,980.37
2022-10-10T01:04:03.054Z,980.37
2022-10-10T01:05:02.961Z,980.31
2022-10-10T01:06:02.948Z,980.45
2022-10-10T01:07:02.902Z,980.42
2022-10-10T01:08:02.899Z,980.34
2022-10-10T01:09:02.939Z,980.39
2022-10-10T01:10:03.021Z,980.31
2022-10-10T01:11:03.013Z,980.28
2022-10-10T01:12:03.083Z,980.31
2022-10-10T01:13:03.124Z,980.34
2022-10-10T01:14:03.099Z,980.12
2022-10-10T01:15:03.197Z,980.03
2022-10-10T01:16:03.131Z,980.25
2022-10-10T01:17:03.270Z,980.22
2022-10-10T01:18:03.486Z,980.09
2022-10-10T01:19:03.383Z,980.08
2022-10-10T01:20:03.350Z,980.11
2022-10-10T01:21:03.539Z,980.14
2022-10-10T01:22:03.484Z,980.22
2022-10-10T01:23:03.465Z,980.03
2022-10-10T01:24:03.498Z,980.14
2022-10-10T01:25:03.440Z,980.11
2022-10-10T01:26:03.460Z,980.27
2022-10-10T01:27:03.540Z,980.11
2022-10-10T01:28:03.473Z,980.24
2022-10-10T01:29:03.516Z,980.14
2022-10-10T01:30:03.590Z,980.16
2022-10-10T01:31:03.566Z,980.24
2022-10-10T01:32:03.601Z,980.24
2022-10-10T01:33:03.608Z,980.16
2022-10-10T01:34:04.709Z,980.11
2022-10-10T01:35:03.697Z,980.16
2022-10-10T01:36:05.028Z,980.16
2022-10-10T01:37:03.075Z,980.10
2022-10-10T01:38:03.100Z,979.99
2022-10-10T01:39:03.198Z,980.13
2022-10-10T01:40:03.148Z,980.08
2022-10-10T01:41:03.165Z,980.21
2022-10-10T01:42:04.395Z,980.10
2022-10-10T01:43:03.242Z,980.16
2022-10-10T01:44:03.103Z,980.16
2022-10-10T01:45:03.242Z,980.13
2022-10-10T01:46:03.428Z,980.10
2022-10-10T01:47:03.412Z,979.90
2022-10-10T01:48:03.369Z,979.83
2022-10-10T01:49:03.295Z,979.93
2022-10-10T01:50:03.337Z,979.99
2022-10-10T01:51:03.375Z,980.07
2022-10-10T01:52:03.453Z,979.90
2022-10-10T01:53:03.454Z,980.07
2022-10-10T01:54:03.554Z,979.93
2022-10-10T01:55:03.663Z,980.10
2022-10-10T01:56:03.580Z,979.98
2022-10-10T01:57:03.546Z,980.04
2022-10-10T01:58:03.658Z,979.98
2022-10-10T01:59:03.593Z,979.98
2022-10-10T02:00:03.671Z,979.95
2022-10-10T02:01:03.782Z,979.95
2022-10-10T02:02:03.717Z,980.12
2022-10-10T02:03:04.932Z,979.98
2022-10-10T02:04:02.913Z,980.12
2022-10-10T02:05:02.995Z,979.95
2022-10-10T02:06:03.091Z,979.95
2022-10-10T02:10:03.501Z,980.03
2022-10-10T02:12:03.783Z,979.92
2022-10-10T02:13:03.725Z,979.89
2022-10-10T02:14:03.816Z,979.86
2022-10-10T02:15:03.066Z,979.89
2022-10-10T02:16:03.003Z,979.84
2022-10-10T02:17:03.088Z,979.84
2022-10-10T02:18:03.083Z,979.76
2022-10-10T02:19:03.082Z,979.70
2022-10-10T02:20:03.230Z,979.76
2022-10-10T02:21:03.231Z,979.81
2022-10-10T02:22:03.341Z,979.73
2022-10-10T02:23:03.706Z,979.62
2022-10-10T02:24:04.845Z,979.78
2022-10-10T02:25:03.679Z,979.73
2022-10-10T02:26:03.827Z,979.64
2022-10-10T02:27:03.817Z,979.61
2022-10-10T02:28:03.854Z,979.70
2022-10-10T02:29:06.376Z,979.61
2022-10-10T02:30:03.281Z,979.58
2022-10-10T02:31:03.380Z,979.73
2022-10-10T02:32:03.304Z,979.67
2022-10-10T02:33:03.405Z,979.78
2022-10-10T02:34:03.655Z,979.61
2022-10-10T02:35:03.613Z,979.75
2022-10-10T02:36:03.621Z,979.64
2022-10-10T02:37:03.648Z,979.64
2022-10-10T02:38:03.632Z,979.55
2022-10-10T02:39:03.625Z,979.69
2022-10-10T02:40:03.672Z,979.63
2022-10-10T02:41:03.762Z,979.55
2022-10-10T02:42:03.725Z,979.55
2022-10-10T02:43:03.846Z,979.52
2022-10-10T02:44:03.029Z,979.52
2022-10-10T02:45:02.935Z,979.54
2022-10-10T02:46:03.005Z,979.63
2022-10-10T02:47:02.988Z,979.60
2022-10-10T02:48:03.016Z,979.49
2022-10-10T02:49:03.111Z,979.46
2022-10-10T02:50:03.077Z,979.51
2022-10-10T02:51:03.089Z,979.60
2022-10-10T02:52:03.069Z,979.51
2022-10-10T02:53:03.124Z,979.51
2022-10-10T02:54:03.102Z,979.43
2022-10-10T02:55:03.145Z,979.43
2022-10-10T02:56:03.097Z,979.34
2022-10-10T02:57:03.246Z,979.48
2022-10-10T02:58:03.174Z,979.43
2022-10-10T02:59:03.267Z,979.40
2022-10-10T03:00:03.344Z,979.54
2022-10-10T03:01:03.479Z,979.40
2022-10-10T03:02:03.549Z,979.31
2022-10-10T03:03:03.499Z,979.43
2022-10-10T03:04:03.583Z,979.34
2022-10-10T03:05:06.201Z,979.40
2022-10-10T03:06:03.528Z,979.48
2022-10-10T03:07:03.724Z,979.43
2022-10-10T03:08:11.550Z,979.54
2022-10-10T03:09:03.890Z,979.57
2022-10-10T03:10:03.801Z,979.45
2022-10-10T03:11:03.777Z,979.40
2022-10-10T03:12:03.868Z,979.54
2022-10-10T03:13:03.866Z,979.43
2022-10-10T03:14:02.919Z,979.51
2022-10-10T03:15:03.772Z,979.51
2022-10-10T03:16:02.955Z,979.48
2022-10-10T03:17:03.012Z,979.46
2022-10-10T03:18:03.012Z,979.48
2022-10-10T03:19:02.896Z,979.54
2022-10-10T03:20:02.976Z,979.40
2022-10-10T03:21:02.910Z,979.49
2022-10-10T03:22:03.970Z,979.34
2022-10-10T03:23:02.900Z,979.40
2022-10-10T03:24:02.921Z,979.35
2022-10-10T03:25:03.881Z,979.37
2022-10-10T03:26:03.875Z,979.40
2022-10-10T03:27:02.990Z,979.40
2022-10-10T03:28:02.957Z,979.55
2022-10-10T03:29:03.087Z,979.38
2022-10-10T03:30:03.318Z,979.35
2022-10-10T03:31:03.389Z,979.43
2022-10-10T03:32:03.295Z,979.46
2022-10-10T03:33:03.487Z,979.32
2022-10-10T03:34:03.491Z,979.29
2022-10-10T03:35:03.574Z,979.24
2022-10-10T03:36:03.583Z,979.29
2022-10-10T03:37:03.620Z,979.55
2022-10-10T03:38:03.641Z,979.41
2022-10-10T03:39:03.567Z,979.35
2022-10-10T03:40:03.535Z,979.41
2022-10-10T03:41:03.652Z,979.35
2022-10-10T03:42:03.782Z,979.27
2022-10-10T03:43:03.893Z,979.35
2022-10-10T03:44:03.847Z,979.33
2022-10-10T03:45:03.790Z,979.41
2022-10-10T03:46:03.802Z,979.36
2022-10-10T03:47:03.909Z,979.19
2022-10-10T03:48:03.935Z,979.27
2022-10-10T03:49:03.871Z,979.24
2022-10-10T03:50:03.033Z,979.24
2022-10-10T03:51:03.026Z,979.27
2022-10-10T03:52:03.106Z,979.27
2022-10-10T03:53:03.045Z,979.22
2022-10-10T03:54:03.073Z,979.22
2022-10-10T03:55:03.017Z,979.24
2022-10-10T03:56:03.030Z,979.22
2022-10-10T03:57:03.099Z,979.19
2022-10-10T03:58:03.256Z,979.30
2022-10-10T03:59:04.215Z,979.25
2022-10-10T04:00:03.151Z,979.24
2022-10-10T04:01:03.347Z,979.16
2022-10-10T04:02:03.238Z,979.08
2022-10-10T04:03:03.197Z,979.19
2022-10-10T04:04:03.372Z,979.22
2022-10-10T04:05:03.419Z,979.25
2022-10-10T04:06:03.337Z,979.13
2022-10-10T04:07:03.470Z,979.08
2022-10-10T04:08:03.449Z,979.13
2022-10-10T04:09:03.441Z,979.10
2022-10-10T04:10:03.474Z,979.22
2022-10-10T04:11:03.701Z,979.13
2022-10-10T04:12:03.622Z,979.16
2022-10-10T04:13:03.715Z,979.16
2022-10-10T04:14:03.824Z,979.22
2022-10-10T04:15:03.839Z,979.22
2022-10-10T04:16:03.753Z,979.10
2022-10-10T04:17:03.913Z,979.02
2022-10-10T04:18:03.855Z,979.05
2022-10-10T04:19:03.048Z,979.13
2022-10-10T04:20:03.028Z,978.99
2022-10-10T04:21:02.962Z,979.05
2022-10-10T04:22:03.116Z,978.99
2022-10-10T04:23:03.133Z,979.07
2022-10-10T04:24:03.284Z,978.90
2022-10-10T04:25:03.569Z,978.96
2022-10-10T04:26:03.373Z,979.02
2022-10-10T04:27:03.321Z,978.96
2022-10-10T04:28:03.354Z,978.96
2022-10-10T04:29:03.320Z,978.90
2022-10-10T04:30:04.047Z,978.93
2022-10-10T04:31:03.043Z,978.88
2022-10-10T04:32:03.066Z,978.93
2022-10-10T04:33:04.212Z,978.88
2022-10-10T04:34:03.334Z,978.99
2022-10-10T04:35:03.365Z,978.90
2022-10-10T04:36:03.450Z,978.85
2022-10-10T04:37:03.461Z,978.93
2022-10-10T04:38:03.431Z,978.99
2022-10-10T04:39:03.533Z,978.90
2022-10-10T04:40:03.590Z,978.90
2022-10-10T04:41:03.575Z,978.84
2022-10-10T04:42:03.648Z,978.76
2022-10-10T04:43:03.669Z,978.76
2022-10-10T04:44:03.779Z,978.96
2022-10-10T04:45:03.835Z,978.84
2022-10-10T04:46:03.799Z,978.76
2022-10-10T04:47:02.925Z,978.82
2022-10-10T04:48:02.993Z,978.79
2022-10-10T04:49:03.073Z,978.95
2022-10-10T04:50:02.993Z,978.90
2022-10-10T04:51:03.096Z,978.75
2022-10-10T04:52:03.077Z,978.84
2022-10-10T04:53:03.083Z,978.72
2022-10-10T04:54:02.986Z,978.69
2022-10-10T04:55:03.007Z,978.72
2022-10-10T04:56:03.059Z,978.72
2022-10-10T04:57:03.102Z,978.83
2022-10-10T04:58:03.118Z,978.78
2022-10-10T04:59:03.150Z,978.92
2022-10-10T05:00:03.153Z,978.92
2022-10-10T05:01:03.390Z,978.80
2022-10-10T05:02:03.261Z,978.91
2022-10-10T05:03:03.280Z,978.74
2022-10-10T05:04:03.262Z,978.72
2022-10-10T05:05:03.294Z,978.77
2022-10-10T05:06:03.291Z,978.77
2022-10-10T05:07:04.245Z,978.74
2022-10-10T05:08:03.254Z,978.83
2022-10-10T05:09:03.354Z,978.83
2022-10-10T05:10:03.427Z,978.83
2022-10-10T05:11:03.353Z,978.83
2022-10-10T05:12:03.456Z,978.89
2022-10-10T05:13:03.391Z,978.72
2022-10-10T05:14:03.489Z,978.91
2022-10-10T05:15:03.563Z,978.72
2022-10-10T05:16:03.642Z,978.83
2022-10-10T05:17:03.832Z,978.71
2022-10-10T05:18:03.786Z,978.77
2022-10-10T05:19:03.768Z,978.86
2022-10-10T05:20:03.725Z,978.77
2022-10-10T05:21:04.342Z,978.86
2022-10-10T05:22:03.013Z,978.91
2022-10-10T05:23:02.968Z,978.77
2022-10-10T05:24:02.991Z,978.85
2022-10-10T05:25:03.048Z,978.91
2022-10-10T05:26:03.175Z,978.80
2022-10-10T05:27:03.118Z,978.82
2022-10-10T05:28:03.194Z,978.99
2022-10-10T05:29:03.159Z,978.97
2022-10-10T05:30:03.256Z,978.80
2022-10-10T05:31:03.273Z,979.05
2022-10-10T05:32:10.562Z,978.88
2022-10-10T05:33:03.181Z,978.91
2022-10-10T05:34:03.120Z,978.82
2022-10-10T05:35:03.191Z,978.91
2022-10-10T05:36:04.428Z,978.99
2022-10-10T05:37:04.136Z,979.02
2022-10-10T05:38:03.123Z,979.02
2022-10-10T05:39:03.242Z,978.91
2022-10-10T05:40:03.296Z,979.02
2022-10-10T05:41:03.252Z,979.08
2022-10-10T05:42:03.236Z,979.28
2022-10-10T05:43:03.287Z,979.19
2022-10-10T05:44:04.024Z,979.08
2022-10-10T05:45:03.223Z,979.14
2022-10-10T05:46:03.355Z,979.02
2022-10-10T05:47:03.291Z,979.08
2022-10-10T05:48:03.343Z,979.14
2022-10-10T05:49:03.193Z,979.28
2022-10-10T05:50:03.551Z,979.08
2022-10-10T05:51:03.477Z,979.17
2022-10-10T05:52:04.276Z,979.14
2022-10-10T05:53:03.328Z,979.14
2022-10-10T05:54:03.285Z,979.23
2022-10-10T05:55:03.305Z,979.23
2022-10-10T05:56:03.200Z,979.17
2022-10-10T05:57:03.142Z,979.28
2022-10-10T05:58:03.206Z,979.28
2022-10-10T05:59:03.179Z,979.31
2022-10-10T06:00:03.370Z,979.29
2022-10-10T06:01:03.399Z,979.14
2022-10-10T06:02:03.677Z,979.26
2022-10-10T06:03:03.533Z,979.23
2022-10-10T06:04:03.417Z,979.17
2022-10-10T06:05:03.456Z,979.31
2022-10-10T06:06:03.527Z,979.20
2022-10-10T06:07:03.568Z,979.26
2022-10-10T06:08:12.245Z,979.29
2022-10-10T06:09:03.707Z,979.17
2022-10-10T06:10:03.714Z,979.31
2022-10-10T06:11:03.749Z,979.26
2022-10-10T06:12:03.791Z,979.37
2022-10-10T06:13:03.844Z,979.31
2022-10-10T06:14:03.902Z,979.20
2022-10-10T06:15:03.810Z,979.20
2022-10-10T06:16:03.843Z,979.26
2022-10-10T06:17:03.105Z,979.23
2022-10-10T06:18:03.204Z,979.29
2022-10-10T06:19:03.493Z,979.06
2022-10-10T06:20:03.412Z,979.26
2022-10-10T06:21:03.521Z,978.97
2022-10-10T06:22:03.463Z,979.06
2022-10-10T06:23:03.465Z,979.25
2022-10-10T06:24:03.602Z,979.03
2022-10-10T06:25:03.696Z,979.11
2022-10-10T06:26:03.697Z,979.14
2022-10-10T06:27:03.673Z,979.03
2022-10-10T06:28:03.677Z,979.00
2022-10-10T06:29:03.703Z,979.14
2022-10-10T06:30:03.699Z,979.08
2022-10-10T06:31:03.673Z,979.19
2022-10-10T06:32:03.667Z,979.08
2022-10-10T06:33:03.750Z,979.19
2022-10-10T06:34:03.104Z,979.10
2022-10-10T06:35:03.042Z,979.04
2022-10-10T06:36:03.190Z,979.07
2022-10-10T06:37:03.282Z,978.95
2022-10-10T06:38:03.224Z,979.12
2022-10-10T06:39:03.275Z,979.11
2022-10-10T06:40:03.236Z,979.03
2022-10-10T06:41:03.388Z,979.02
2022-10-10T06:42:03.398Z,979.13
2022-10-10T06:43:03.473Z,979.07
2022-10-10T06:44:03.618Z,978.93
2022-10-10T06:45:03.543Z,978.93
2022-10-10T06:46:03.694Z,978.92
2022-10-10T06:47:03.628Z,978.89
2022-10-10T06:48:03.565Z,979.09
2022-10-10T06:49:03.553Z,979.06
2022-10-10T06:50:03.475Z,978.97
2022-10-10T06:51:03.577Z,979.11
2022-10-10T06:52:03.585Z,979.08
2022-10-10T06:53:03.657Z,979.11
2022-10-10T06:54:03.649Z,979.02
2022-10-10T06:55:03.531Z,979.13
2022-10-10T06:56:03.571Z,979.05
2022-10-10T06:57:03.651Z,979.24
2022-10-10T06:58:03.609Z,979.13
2022-10-10T06:59:03.769Z,979.18
2022-10-10T07:00:03.807Z,979.29
2022-10-10T07:01:03.801Z,979.21
2022-10-10T07:02:03.839Z,979.20
2022-10-10T07:03:03.807Z,979.20
2022-10-10T07:04:03.668Z,979.34
2022-10-10T07:05:03.657Z,979.20
2022-10-10T07:06:03.648Z,979.11
2022-10-10T07:07:03.674Z,979.23
2022-10-10T07:08:03.668Z,979.17
2022-10-10T07:09:03.670Z,979.20
2022-10-10T07:10:03.662Z,979.43
2022-10-10T07:11:03.714Z,979.34
2022-10-10T07:12:03.703Z,979.29
2022-10-10T07:13:03.752Z,979.31
2022-10-10T07:14:03.806Z,979.43
2022-10-10T07:15:03.736Z,979.40
2022-10-10T07:16:03.826Z,979.43
2022-10-10T07:17:03.806Z,979.42
2022-10-10T07:18:03.774Z,979.45
2022-10-10T07:19:03.739Z,979.33
2022-10-10T07:20:03.769Z,979.33
2022-10-10T07:21:03.769Z,979.27
2022-10-10T07:22:03.772Z,979.43
2022-10-10T07:23:03.867Z,979.48
2022-10-10T07:24:02.980Z,979.39
2022-10-10T07:25:03.010Z,979.39
2022-10-10T07:26:03.085Z,979.44
2022-10-10T07:27:09.132Z,979.41
2022-10-10T07:28:03.059Z,979.41
2022-10-10T07:29:03.159Z,979.49
2022-10-10T07:30:03.116Z,979.40
2022-10-10T07:31:03.186Z,979.45
2022-10-10T07:32:03.228Z,979.42
2022-10-10T07:33:03.175Z,979.44
2022-10-10T07:34:03.154Z,979.47
2022-10-10T07:35:03.142Z,979.52
2022-10-10T07:36:03.116Z,979.63
2022-10-10T07:37:03.099Z,979.40
2022-10-10T07:38:03.214Z,979.74
2022-10-10T07:39:03.300Z,979.68
2022-10-10T07:40:03.381Z,979.70
2022-10-10T07:41:03.358Z,979.70
2022-10-10T07:42:03.461Z,979.67
2022-10-10T07:43:03.574Z,979.70
2022-10-10T07:44:03.601Z,979.89
2022-10-10T07:45:03.652Z,979.81
2022-10-10T07:46:07.064Z,979.75
2022-10-10T07:47:03.668Z,979.80
2022-10-10T07:48:03.697Z,979.77
2022-10-10T07:49:03.704Z,979.93
2022-10-10T07:50:03.661Z,979.77
2022-10-10T07:51:03.655Z,980.01
2022-10-10T07:52:03.688Z,979.87
2022-10-10T07:53:03.684Z,979.79
2022-10-10T07:54:03.683Z,979.95
2022-10-10T07:55:03.760Z,979.95
2022-10-10T07:56:03.906Z,979.98
2022-10-10T07:57:03.877Z,979.98
2022-10-10T07:58:03.782Z,979.98
2022-10-10T07:59:03.839Z,979.98
2022-10-10T08:00:03.913Z,979.98
2022-10-10T08:01:02.967Z,980.04
2022-10-10T08:02:03.044Z,980.12
2022-10-10T08:03:02.992Z,979.95
2022-10-10T08:04:03.165Z,980.03
2022-10-10T08:05:03.192Z,980.00
2022-10-10T08:06:03.179Z,980.06
2022-10-10T08:07:03.312Z,980.15
2022-10-10T08:08:03.194Z,980.00
2022-10-10T08:09:03.350Z,980.14
2022-10-10T08:10:03.331Z,980.17
2022-10-10T08:11:03.359Z,980.00
2022-10-10T08:12:03.340Z,980.03
2022-10-10T08:13:03.349Z,980.17
2022-10-10T08:14:03.260Z,980.22
2022-10-10T08:15:03.471Z,980.17
2022-10-10T08:16:03.196Z,980.22
2022-10-10T08:17:03.317Z,980.22
2022-10-10T08:18:03.363Z,980.21
2022-10-10T08:19:03.613Z,980.08
2022-10-10T08:20:03.466Z,980.13
2022-10-10T08:21:03.622Z,980.13
2022-10-10T08:22:03.625Z,980.07
2022-10-10T08:23:03.546Z,980.24
2022-10-10T08:24:03.580Z,980.07
2022-10-10T08:25:03.570Z,980.07
2022-10-10T08:26:03.541Z,980.23
2022-10-10T08:27:03.623Z,980.01
2022-10-10T08:28:03.629Z,980.10
2022-10-10T08:29:03.713Z,980.29
2022-10-10T08:30:03.771Z,980.09
2022-10-10T08:31:06.397Z,980.07
2022-10-10T08:32:03.786Z,980.06
2022-10-10T08:33:03.731Z,980.09
2022-10-10T08:34:03.797Z,980.12
2022-10-10T08:35:03.861Z,980.09
2022-10-10T08:36:03.836Z,980.18
2022-10-10T08:37:03.823Z,980.22
2022-10-10T08:38:03.774Z,980.18
2022-10-10T08:39:03.913Z,980.06
2022-10-10T08:40:03.871Z,980.09
2022-10-10T08:41:03.013Z,980.25
2022-10-10T08:42:03.018Z,980.15
2022-10-10T08:43:02.979Z,980.09
2022-10-10T08:44:03.894Z,980.09
2022-10-10T08:45:03.856Z,980.14
2022-10-10T08:46:03.878Z,980.03
2022-10-10T08:47:02.982Z,980.00
2022-10-10T08:48:03.874Z,980.17
2022-10-10T08:49:02.974Z,980.02
2022-10-10T08:50:03.912Z,979.96
2022-10-10T08:51:02.917Z,980.02
2022-10-10T08:52:02.948Z,980.08
2022-10-10T08:53:03.057Z,979.87
2022-10-10T08:54:03.021Z,979.99
2022-10-10T08:55:03.076Z,979.93
2022-10-10T08:56:03.163Z,979.96
2022-10-10T08:57:03.019Z,980.02
2022-10-10T08:58:03.083Z,979.99
2022-10-10T08:59:03.091Z,980.01
2022-10-10T09:00:03.064Z,979.99
2022-10-10T09:01:03.233Z,979.98
2022-10-10T09:02:23.398Z,979.90
2022-10-10T09:03:03.278Z,979.87
2022-10-10T09:04:03.313Z,979.90
2022-10-10T09:05:03.268Z,979.87
2022-10-10T09:06:03.362Z,979.92
2022-10-10T09:07:03.259Z,980.01
2022-10-10T09:08:03.262Z,979.89
2022-10-10T09:09:03.394Z,979.95
2022-10-10T09:10:03.280Z,979.98
2022-10-10T09:11:03.243Z,979.78
2022-10-10T09:12:03.362Z,979.89
2022-10-10T09:13:03.263Z,979.84
2022-10-10T09:14:03.309Z,979.86
2022-10-10T09:15:03.360Z,979.86
2022-10-10T09:16:03.296Z,979.83
2022-10-10T09:17:03.479Z,979.80
2022-10-10T09:18:03.460Z,979.80
2022-10-10T09:19:03.477Z,979.80
2022-10-10T09:20:03.472Z,979.86
2022-10-10T09:21:03.513Z,979.71
2022-10-10T09:22:03.437Z,979.85
2022-10-10T09:23:03.450Z,979.99
2022-10-10T09:24:03.462Z,979.82
2022-10-10T09:25:03.561Z,979.79
2022-10-10T09:26:10.959Z,979.76
2022-10-10T09:27:03.562Z,979.87
2022-10-10T09:28:03.571Z,979.87
2022-10-10T09:29:03.648Z,979.87
2022-10-10T09:30:03.615Z,979.82
2022-10-10T09:31:03.735Z,979.79
2022-10-10T09:32:03.814Z,979.84
2022-10-10T09:33:03.840Z,979.84
2022-10-10T09:34:02.958Z,979.73
2022-10-10T09:35:02.961Z,979.84
2022-10-10T09:36:03.076Z,979.73
2022-10-10T09:37:03.118Z,979.58
2022-10-10T09:38:03.088Z,979.69
2022-10-10T09:39:03.120Z,979.64
2022-10-10T09:40:03.217Z,979.64
2022-10-10T09:41:03.162Z,979.72
2022-10-10T09:42:03.302Z,979.75
2022-10-10T09:43:03.263Z,979.81
2022-10-10T09:44:03.262Z,979.83
2022-10-10T09:45:03.176Z,979.83
2022-10-10T09:46:03.140Z,979.69
2022-10-10T09:47:03.194Z,979.77
2022-10-10T09:48:03.200Z,979.86
2022-10-10T09:49:03.252Z,979.86
2022-10-10T09:51:03.212Z,979.80
2022-10-10T09:52:03.183Z,979.93
2022-10-10T09:53:03.184Z,979.90
2022-10-10T09:54:03.162Z,979.71
2022-10-10T09:55:03.236Z,979.93
2022-10-10T09:56:03.203Z,979.96
2022-10-10T09:57:03.215Z,979.80
2022-10-10T09:58:03.175Z,979.85
2022-10-10T09:59:03.185Z,979.96
2022-10-10T10:00:05.112Z,979.77
2022-10-10T10:01:03.365Z,979.90
2022-10-10T10:02:03.338Z,979.96
2022-10-10T10:03:03.231Z,979.93
2022-10-10T10:04:27.531Z,979.95
2022-10-10T10:05:03.352Z,979.98
2022-10-10T10:06:03.317Z,980.01
2022-10-10T10:07:03.357Z,979.86
2022-10-10T10:08:03.311Z,979.82
2022-10-10T10:09:03.433Z,979.92
2022-10-10T10:10:03.676Z,979.81
2022-10-10T10:11:03.582Z,979.81
2022-10-10T10:12:03.579Z,980.00
2022-10-10T10:13:03.816Z,979.86
2022-10-10T10:14:03.732Z,979.86
2022-10-10T10:15:03.778Z,979.97
2022-10-10T10:16:03.757Z,979.86
2022-10-10T10:17:03.977Z,979.88
2022-10-10T10:18:02.991Z,979.91
2022-10-10T10:19:02.931Z,979.86
2022-10-10T10:20:05.533Z,979.91
2022-10-10T10:21:03.060Z,979.86
2022-10-10T10:22:03.109Z,979.94
2022-10-10T10:23:03.231Z,979.91
2022-10-10T10:24:03.292Z,979.94
2022-10-10T10:25:03.230Z,979.96
2022-10-10T10:26:03.260Z,980.02
2022-10-10T10:27:03.319Z,980.02
2022-10-10T10:28:03.455Z,979.87
2022-10-10T10:29:03.358Z,979.96
2022-10-10T10:30:03.358Z,979.99
2022-10-10T10:31:03.505Z,979.85
2022-10-10T10:32:03.670Z,979.87
2022-10-10T10:33:03.701Z,980.04
2022-10-10T10:34:03.653Z,979.82
2022-10-10T10:35:03.609Z,980.01
2022-10-10T10:36:03.689Z,979.93
2022-10-10T10:37:03.727Z,979.98
2022-10-10T10:38:03.882Z,980.04
2022-10-10T10:39:02.944Z,979.89
2022-10-10T10:40:03.048Z,979.95
2022-10-10T10:41:03.010Z,979.92
2022-10-10T10:42:03.046Z,980.06
2022-10-10T10:43:03.107Z,979.86
2022-10-10T10:44:03.226Z,980.06
2022-10-10T10:45:03.142Z,979.92
2022-10-10T10:46:03.451Z,980.03
2022-10-10T10:47:03.255Z,980.03
2022-10-10T10:48:03.344Z,980.12
2022-10-10T10:49:03.300Z,979.97
2022-10-10T10:50:03.430Z,980.12
2022-10-10T10:51:03.873Z,980.14
2022-10-10T10:52:03.510Z,980.06
2022-10-10T10:53:03.462Z,980.17
2022-10-10T10:54:03.465Z,980.22
2022-10-10T10:55:03.335Z,980.00
2022-10-10T10:56:03.363Z,979.94
2022-10-10T10:57:10.799Z,980.11
2022-10-10T10:59:10.617Z,979.97
2022-10-10T11:00:33.576Z,979.94
2022-10-10T11:01:22.719Z,979.97
2022-10-10T11:01:52.125Z,980.05
2022-10-10T11:02:04.022Z,980.02
2022-10-10T11:03:38.787Z,979.88
2022-10-10T11:05:30.965Z,979.94
2022-10-10T11:05:30.970Z,979.96
2022-10-10T11:06:03.461Z,979.91
2022-10-10T11:07:20.216Z,979.91
2022-10-10T11:08:03.335Z,979.93
2022-10-10T11:09:03.301Z,979.93
2022-10-10T11:10:03.318Z,979.96
2022-10-10T11:11:03.560Z,980.02
2022-10-10T11:12:05.030Z,979.96
2022-10-10T11:13:03.554Z,979.93
2022-10-10T11:14:03.637Z,979.99
2022-10-10T11:15:03.584Z,979.96
2022-10-10T11:16:20.291Z,980.11
2022-10-10T11:17:03.587Z,980.05
2022-10-10T11:18:03.633Z,980.21
2022-10-10T11:19:03.671Z,979.96
2022-10-10T11:20:03.633Z,979.87
2022-10-10T11:21:04.090Z,979.93
2022-10-10T11:22:03.651Z,979.99
2022-10-10T11:23:09.531Z,980.08
2022-10-10T11:24:03.745Z,980.08
2022-10-10T11:25:03.036Z,980.11
2022-10-10T11:26:03.197Z,980.08
2022-10-10T11:27:03.307Z,980.14
2022-10-10T11:28:03.249Z,979.96
2022-10-10T11:29:03.551Z,979.91
2022-10-10T11:30:03.295Z,980.05
2022-10-10T11:31:03.890Z,980.00
2022-10-10T11:32:03.468Z,979.91
2022-10-10T11:33:03.588Z,979.94
2022-10-10T11:34:03.557Z,980.05
2022-10-10T11:35:03.696Z,980.05
2022-10-10T11:36:03.964Z,980.21
2022-10-10T11:37:03.663Z,980.02
2022-10-10T11:38:03.644Z,979.96
2022-10-10T11:39:03.638Z,979.96
2022-10-10T11:40:03.597Z,979.85
2022-10-10T11:41:03.665Z,979.87
2022-10-10T11:42:03.699Z,979.87
2022-10-10T11:43:03.668Z,979.98
2022-10-10T11:44:03.692Z,979.73
2022-10-10T11:45:03.718Z,979.73
2022-10-10T11:46:04.008Z,979.73
2022-10-10T11:47:02.974Z,979.76
2022-10-10T11:48:03.020Z,979.87
2022-10-10T11:49:03.045Z,979.82
2022-10-10T11:50:02.984Z,979.85
2022-10-10T11:51:03.050Z,979.76
2022-10-10T11:52:33.411Z,979.70
2022-10-10T11:53:02.935Z,979.67
2022-10-10T11:54:03.066Z,979.70
2022-10-10T11:55:03.080Z,979.73
2022-10-10T11:56:04.095Z,979.67
2022-10-10T11:57:03.253Z,979.75
2022-10-10T11:58:03.245Z,979.61
2022-10-10T11:59:03.315Z,979.64
2022-10-10T12:00:03.411Z,979.61
2022-10-10T12:01:03.468Z,979.69
2022-10-10T12:02:03.402Z,979.63
2022-10-10T12:03:03.565Z,979.63
2022-10-10T12:04:03.444Z,979.69
2022-10-10T12:05:03.576Z,979.63
2022-10-10T12:06:04.609Z,979.66
2022-10-10T12:07:03.805Z,979.49
2022-10-10T12:08:03.761Z,979.57
2022-10-10T12:09:03.792Z,979.69
2022-10-10T12:10:03.760Z,979.60
2022-10-10T12:11:03.849Z,979.72
2022-10-10T12:12:03.742Z,979.51
2022-10-10T12:13:03.834Z,979.60
2022-10-10T12:14:03.100Z,979.66
2022-10-10T12:15:03.057Z,979.57
2022-10-10T12:16:03.781Z,979.54
2022-10-10T12:17:03.260Z,979.57
2022-10-10T12:18:03.181Z,979.60
2022-10-10T12:19:03.191Z,979.57
2022-10-10T12:20:03.283Z,979.60
2022-10-10T12:21:03.406Z,979.66
2022-10-10T12:22:03.452Z,979.54
2022-10-10T12:23:03.487Z,979.42
2022-10-10T12:24:03.437Z,979.60
2022-10-10T12:25:03.617Z,979.51
2022-10-10T12:26:04.175Z,979.48
2022-10-10T12:27:03.713Z,979.48
2022-10-10T12:28:03.815Z,979.48
2022-10-10T12:29:04.958Z,979.65
2022-10-10T12:30:03.150Z,979.59
2022-10-10T12:31:03.651Z,979.56
2022-10-10T12:32:03.004Z,979.56
2022-10-10T12:33:03.105Z,979.51